Nearby METAR Reports

 

KSJC - San Jose, California, USA
Distance from station: NE 9mi, 14km
Updated: Fri, 22-Jun-2018 4:53am PDT
Clear
Clear
 Wind from calm
Wind: Calm
Temperature: 59°F , 15°C
Dew Point: 54°F , 12°C
Humidity: 82%
Barometer: 29.95 inHg , 1014.2 hPa
Clouds: Clear
Visibility: 10 miles , 16 km
2018/06/22 11:53 KSJC 221153Z AUTO 00000KT 10SM CLR 15/12 A2995 RMK AO2 SLP143 T01500117 10167 20139 56004
KNUQ - Moffett Nas/Mtn, California, USA
Distance from station: N 9mi, 14km
Updated: Fri, 22-Jun-2018 4:56am PDT
Clear
Clear
 Wind from calm
Wind: Calm
Temperature: 57°F , 14°C
Dew Point: 54°F , 12°C
Humidity: 88%
Barometer: 29.96 inHg , 1014.6 hPa
Clouds: Clear
Visibility: 10 miles , 16 km
2018/06/22 11:56 KNUQ 221156Z AUTO 00000KT 10SM CLR 14/12 A2996 RMK AO2 SLP146 T01440122 10167 20139 58005
 
KPAO - Palo Alto, California, USA
Distance from station: NNW 14mi, 23km
Updated: Thu, 21-Jun-2018 8:47pm PDT
NOT Current
Clear
Clear
 Wind from NNW
Wind: NNW 13 mph , 20 km/h
Temperature: 63°F , 17°C
Dew Point: 55°F , 13°C
Humidity: 77%
Barometer: 29.96 inHg , 1014.6 hPa
Clouds: Clear
Visibility: 10 miles , 16 km
2018/06/22 03:47 KPAO 220347Z 33011KT 10SM SKC 17/13 A2996
KRHV - San Jose/Reid, California, USA
Distance from station: ENE 12mi, 19km
Updated: Thu, 21-Jun-2018 9:47pm PDT
NOT Current
Clear
Clear
 Wind from NW
Wind: NW 8 mph , 13 km/h
Temperature: 66°F , 19°C
Dew Point: 52°F , 11°C
Humidity: 60%
Barometer: 29.95 inHg , 1014.2 hPa
Clouds: Clear
Visibility: 8 miles , 13 km
2018/06/22 04:47 KRHV 220447Z 32007KT 8SM SKC 19/11 A2995 RMK LAST
 
KOAK - Oakland, California, USA
Distance from station: NNW 31mi, 50km
Updated: Fri, 22-Jun-2018 4:53am PDT
Few Clouds
Few Clouds
 Wind from WSW
Wind: WSW 6 mph , 9 km/h
Temperature: 55°F , 13°C
Dew Point: 54°F , 12°C
Humidity: 94%
Barometer: 29.96 inHg , 1014.6 hPa
Clouds: Few Clouds
Visibility: 10 miles , 16 km
Cloud details: Few Clouds 1400 ft
2018/06/22 11:53 KOAK 221153Z 24005KT 10SM FEW014 13/12 A2996 RMK AO2 SLP144 T01330117 10139 20111 58000
KSQL - San Carlos Airpo, California, USA
Distance from station: NW 21mi, 34km
Updated: Fri, 22-Jun-2018 5:40am PDT
Clear
Clear
 Wind from calm
Wind: Calm
Temperature: 55°F , 13°C
Dew Point: 50°F , 10°C
Humidity: 82%
Barometer: 29.95 inHg , 1014.2 hPa
Clouds: Clear
Visibility: 10 miles , 16 km
2018/06/22 12:40 KSQL 221240Z AUTO 00000KT 10SM CLR 13/10 A2995 RMK AO2
 
KSFO - San Francisco, California, USA
Distance from station: NW 30mi, 49km
Updated: Fri, 22-Jun-2018 4:56am PDT
Few Clouds
Few Clouds
 Wind from WNW
Wind: WNW 10 mph , 17 km/h
Temperature: 57°F , 14°C
Dew Point: 48°F , 9°C
Humidity: 72%
Barometer: 29.95 inHg , 1014.2 hPa
Clouds: Few Clouds
Visibility: 10 miles , 16 km
Cloud details: Few Clouds 1000 ft
2018/06/22 11:56 KSFO 221156Z 29009KT 10SM FEW010 14/09 A2995 RMK AO2 SLP142 T01390094 10150 20133 58001 $
KE16 - San Martin, California, USA
Distance from station: ESE 27mi, 43km
Updated: Fri, 22-Jun-2018 5:35am PDT
Clear
Clear
 Wind from calm
Wind: Calm
Temperature: 54°F , 12°C
Dew Point: 48°F , 9°C
Humidity: 82%
Barometer: 29.98 inHg , 1015.2 hPa
Clouds: Clear
Visibility: 10 miles , 16 km
2018/06/22 12:35 KE16 221235Z AUTO 00000KT 10SM CLR 12/09 A2998 RMK AO2
 
KWVI - Watsonville, California, USA
Distance from station: SSE 27mi, 44km
Updated: Fri, 22-Jun-2018 5:33am PDT
Fog, Overcast
Fog, Overcast
 Wind from calm
Wind: Calm
Barometer: 29.97 inHg , 1014.9 hPa
Summary: Fog
Clouds: Overcast
Visibility: 1/2 mile , 0.8 km
Cloud details: Overcast 200 ft
2018/06/22 12:33 KWVI 221233Z AUTO 00000KT 1/2SM FG VV002 A2997 RMK AO2 $
KHAF - Half Moon Bay, California, USA
Distance from station: WNW 31mi, 50km
Updated: Fri, 22-Jun-2018 5:40am PDT
Mist, Overcast
Mist, Overcast
 Wind from ENE
Wind: ENE 3 mph , 6 km/h
Temperature: 48°F , 9°C
Dew Point: 48°F , 9°C
Humidity: 100%
Barometer: 29.98 inHg , 1015.2 hPa
Summary: Mist
Clouds: Overcast
Visibility: 2 miles , 3 km
Cloud details: Mostly cloudy 300 ft
Overcast 600 ft
2018/06/22 12:40 KHAF 221240Z AUTO 06003KT 2SM BR BKN003 OVC006 09/09 A2998 RMK AO2
 
KHWD - Hayward, California, USA
Distance from station: N 28mi, 44km
Updated: Fri, 22-Jun-2018 4:54am PDT
Clear
Clear
 Wind from NE
Wind: NE 5 mph , 7 km/h
Temperature: 55°F , 13°C
Dew Point: 48°F , 9°C
Humidity: 77%
Barometer: 29.95 inHg , 1014.2 hPa
Clouds: Clear
Visibility: 10 miles , 16 km
2018/06/22 11:54 KHWD 221154Z 05004KT 10SM CLR 13/09 A2995 RMK AO2 SLP152 T01330094 10150 20133 58001
KLVK - Livermore, California, USA
Distance from station: NNE 31mi, 51km
Updated: Fri, 22-Jun-2018 4:53am PDT
Clear
Clear
 Wind from calm
Wind: Calm
Temperature: 57°F , 14°C
Dew Point: 48°F , 9°C
Humidity: 72%
Barometer: 29.94 inHg , 1013.9 hPa
Clouds: Clear
Visibility: 10 miles , 16 km
2018/06/22 11:53 KLVK 221153Z AUTO 00000KT 10SM CLR 14/09 A2994 RMK AO2 SLP136 T01390089 10189 20139 58001